Time;durP1;ratioP1;P1;durP2;ratioP2;P2;SDS_P1;SDS_P2;PMS_P1;PMS_P2;Temp;Humidity;BMP_temperature;BMP_pressure;BME280_temperature;BME280_humidity;BME280_pressure;Samples;Min_cycle;Max_cycle;Signal;HPM_P1;HPM_P2
2024/01/24 00:00:23;;;;;;;24.80;3.90;;;;;;;;;;5012475;28;20037;-82
2024/01/24 00:02:49;;;;;;;28.02;3.70;;;;;;;;;;5010243;28;20440;-78
2024/01/24 00:05:16;;;;;;;24.80;4.63;;;;;;;;;;5013348;28;20033;-80
2024/01/24 00:07:42;;;;;;;22.75;3.33;;;;;;;;;;5001486;28;20026;-78
2024/01/24 00:10:08;;;;;;;37.40;5.75;;;;;;;;;;5007113;28;20037;-78
2024/01/24 00:12:34;;;;;;;21.92;3.22;;;;;;;;;;5012026;28;20046;-79
2024/01/24 00:15:00;;;;;;;31.55;5.03;;;;;;;;;;5010156;28;20080;-78
2024/01/24 00:17:26;;;;;;;28.45;3.92;;;;;;;;;;5007244;28;20419;-80
2024/01/24 00:19:52;;;;;;;30.20;4.70;;;;;;;;;;5013716;28;20041;-79
2024/01/24 00:22:18;;;;;;;30.38;5.45;;;;;;;;;;5005730;28;20112;-79
2024/01/24 00:24:44;;;;;;;27.85;6.15;;;;;;;;;;5008230;28;20144;-82
2024/01/24 00:27:11;;;;;;;26.02;4.20;;;;;;;;;;5003258;28;20037;-79
2024/01/24 00:29:37;;;;;;;31.75;4.75;;;;;;;;;;5003617;28;20042;-79
2024/01/24 00:32:03;;;;;;;26.45;5.43;;;;;;;;;;5009326;28;20026;-79
2024/01/24 00:34:29;;;;;;;32.03;4.70;;;;;;;;;;5006608;28;20076;-78
2024/01/24 00:36:55;;;;;;;29.67;4.15;;;;;;;;;;5011803;28;20025;-78
2024/01/24 00:39:22;;;;;;;29.20;4.55;;;;;;;;;;5008813;28;20390;-83
2024/01/24 00:41:48;;;;;;;33.50;5.55;;;;;;;;;;5006504;28;20041;-78
2024/01/24 00:44:14;;;;;;;32.38;6.00;;;;;;;;;;5006115;28;20033;-78
2024/01/24 00:46:41;;;;;;;23.13;4.20;;;;;;;;;;5007214;28;20030;-78
2024/01/24 00:49:10;;;;;;;31.95;4.63;;;;;;;;;;5008234;28;20037;-79
2024/01/24 00:51:37;;;;;;;31.73;5.38;;;;;;;;;;5010362;28;20026;-85
2024/01/24 00:54:03;;;;;;;33.15;6.60;;;;;;;;;;5010441;28;20034;-81
2024/01/24 00:56:29;;;;;;;30.65;5.10;;;;;;;;;;4999163;28;20057;-81
2024/01/24 00:58:55;;;;;;;24.05;4.22;;;;;;;;;;5011495;28;20033;-78
2024/01/24 01:01:21;;;;;;;28.33;4.85;;;;;;;;;;5018578;28;20085;-77
2024/01/24 01:03:48;;;;;;;27.13;4.57;;;;;;;;;;5010641;28;20029;-80
2024/01/24 01:06:14;;;;;;;34.70;5.95;;;;;;;;;;5011654;28;20492;-78
2024/01/24 01:08:40;;;;;;;28.45;3.40;;;;;;;;;;5009845;28;20496;-79
2024/01/24 01:11:06;;;;;;;32.63;4.45;;;;;;;;;;5010762;28;20549;-85
2024/01/24 01:13:34;;;;;;;31.15;4.35;;;;;;;;;;5009943;28;20503;-79
2024/01/24 01:16:00;;;;;;;29.48;4.40;;;;;;;;;;5019000;28;20034;-78
2024/01/24 01:18:26;;;;;;;25.75;3.67;;;;;;;;;;5012303;28;20463;-79
2024/01/24 01:20:52;;;;;;;24.35;3.70;;;;;;;;;;5012106;28;20026;-78
2024/01/24 01:23:18;;;;;;;25.20;3.53;;;;;;;;;;5000451;28;20030;-80
2024/01/24 01:25:44;;;;;;;24.67;3.00;;;;;;;;;;5010221;28;20038;-81
2024/01/24 01:28:10;;;;;;;18.52;3.88;;;;;;;;;;5009726;28;20038;-77
2024/01/24 01:30:36;;;;;;;20.40;3.33;;;;;;;;;;5013880;28;20061;-85
2024/01/24 01:33:02;;;;;;;21.38;3.13;;;;;;;;;;5010955;28;20132;-85
2024/01/24 01:35:28;;;;;;;20.70;3.58;;;;;;;;;;5010455;28;20791;-81
2024/01/24 01:37:54;;;;;;;21.90;2.85;;;;;;;;;;5010267;28;20541;-81
2024/01/24 01:40:20;;;;;;;18.65;3.17;;;;;;;;;;5008456;28;20495;-79
2024/01/24 01:42:46;;;;;;;13.48;2.88;;;;;;;;;;5008848;28;20105;-81
2024/01/24 01:45:13;;;;;;;25.45;3.80;;;;;;;;;;5010181;28;20546;-79
2024/01/24 01:47:39;;;;;;;24.20;3.65;;;;;;;;;;5015378;28;20091;-78
2024/01/24 01:50:12;;;;;;;20.77;4.28;;;;;;;;;;5008080;28;20038;-79
2024/01/24 01:52:39;;;;;;;14.10;2.70;;;;;;;;;;5010618;28;20061;-77
2024/01/24 01:55:05;;;;;;;17.73;3.15;;;;;;;;;;5009285;28;20060;-78
2024/01/24 01:57:33;;;;;;;21.42;3.38;;;;;;;;;;5004534;28;20494;-78
2024/01/24 01:59:59;;;;;;;18.42;2.72;;;;;;;;;;5009784;28;20034;-79
2024/01/24 02:02:25;;;;;;;14.93;2.67;;;;;;;;;;5006733;28;20061;-79
2024/01/24 02:04:51;;;;;;;17.83;3.67;;;;;;;;;;5010009;28;20137;-78
2024/01/24 02:07:17;;;;;;;20.02;3.13;;;;;;;;;;5009719;28;20065;-79
2024/01/24 02:09:45;;;;;;;14.27;2.90;;;;;;;;;;5009306;28;20442;-79
2024/01/24 02:12:11;;;;;;;17.63;3.92;;;;;;;;;;5008413;28;20081;-79
2024/01/24 02:14:37;;;;;;;14.18;3.30;;;;;;;;;;5007886;28;20080;-79
2024/01/24 02:17:03;;;;;;;16.58;3.40;;;;;;;;;;5026615;28;20044;-80
2024/01/24 02:19:29;;;;;;;15.68;2.90;;;;;;;;;;5008267;28;20034;-77
2024/01/24 02:21:55;;;;;;;16.73;2.83;;;;;;;;;;5008671;28;20399;-78
2024/01/24 02:24:21;;;;;;;19.35;2.58;;;;;;;;;;5009372;28;20053;-79
2024/01/24 02:26:47;;;;;;;18.67;2.65;;;;;;;;;;5008904;28;20100;-78
2024/01/24 02:29:13;;;;;;;18.13;2.58;;;;;;;;;;5012820;28;20040;-76
2024/01/24 02:31:39;;;;;;;18.02;3.45;;;;;;;;;;5007422;28;20022;-77
2024/01/24 02:34:05;;;;;;;15.90;3.78;;;;;;;;;;5008492;28;20026;-76
2024/01/24 02:36:31;;;;;;;17.65;2.65;;;;;;;;;;5007934;28;20084;-79
2024/01/24 02:38:57;;;;;;;18.60;3.40;;;;;;;;;;5009030;28;20116;-81
2024/01/24 02:41:23;;;;;;;26.00;3.60;;;;;;;;;;5008104;28;20045;-77
2024/01/24 02:43:49;;;;;;;15.52;2.75;;;;;;;;;;5008260;28;20034;-77
2024/01/24 02:46:16;;;;;;;25.73;3.45;;;;;;;;;;5013839;28;20025;-77
2024/01/24 02:48:42;;;;;;;27.30;4.88;;;;;;;;;;5009299;28;20045;-76
2024/01/24 02:51:08;;;;;;;20.23;4.47;;;;;;;;;;5007493;28;20482;-78
2024/01/24 02:53:34;;;;;;;22.95;3.47;;;;;;;;;;5004932;28;20406;-77
2024/01/24 02:56:00;;;;;;;20.50;3.65;;;;;;;;;;5009454;28;20034;-79
2024/01/24 02:58:26;;;;;;;26.42;3.80;;;;;;;;;;5004969;28;20026;-76
2024/01/24 03:00:52;;;;;;;25.75;4.25;;;;;;;;;;5010809;28;20033;-76
2024/01/24 03:03:18;;;;;;;29.70;4.82;;;;;;;;;;5005845;28;20030;-77
2024/01/24 03:05:44;;;;;;;26.92;6.13;;;;;;;;;;4998059;28;20666;-77
2024/01/24 03:08:11;;;;;;;26.38;5.38;;;;;;;;;;5008400;28;20456;-77
2024/01/24 03:10:37;;;;;;;24.17;4.40;;;;;;;;;;4992529;28;20068;-78
2024/01/24 03:13:03;;;;;;;25.50;4.15;;;;;;;;;;5008468;28;20050;-79
2024/01/24 03:15:29;;;;;;;25.98;5.53;;;;;;;;;;5006261;28;20048;-79
2024/01/24 03:17:55;;;;;;;29.02;4.63;;;;;;;;;;5006622;28;20434;-77
2024/01/24 03:20:21;;;;;;;34.47;5.22;;;;;;;;;;5008825;28;20435;-77
2024/01/24 03:22:47;;;;;;;28.38;4.60;;;;;;;;;;5007178;28;20112;-78
2024/01/24 03:25:16;;;;;;;26.83;4.30;;;;;;;;;;5008555;28;20033;-78
2024/01/24 03:27:42;;;;;;;24.30;5.15;;;;;;;;;;5001224;28;20489;-77
2024/01/24 03:30:08;;;;;;;21.95;3.67;;;;;;;;;;5007935;28;20153;-78
2024/01/24 03:32:35;;;;;;;36.17;4.30;;;;;;;;;;5011649;28;20479;-79
2024/01/24 03:35:01;;;;;;;33.78;6.15;;;;;;;;;;5008731;28;20040;-78
2024/01/24 03:37:27;;;;;;;30.38;3.72;;;;;;;;;;5003264;28;20061;-77
2024/01/24 03:39:53;;;;;;;28.58;5.10;;;;;;;;;;5006545;28;20052;-79
2024/01/24 03:42:19;;;;;;;32.40;5.40;;;;;;;;;;5007670;28;20041;-79
2024/01/24 03:44:45;;;;;;;39.88;5.90;;;;;;;;;;5008302;28;20034;-77
2024/01/24 03:47:11;;;;;;;29.13;6.00;;;;;;;;;;5019101;28;20088;-78
2024/01/24 03:49:37;;;;;;;23.85;5.07;;;;;;;;;;5006673;28;20026;-79
2024/01/24 03:52:04;;;;;;;24.95;5.07;;;;;;;;;;5006464;28;20045;-78
2024/01/24 03:54:30;;;;;;;27.05;5.88;;;;;;;;;;5007246;28;20085;-78
2024/01/24 03:56:56;;;;;;;30.92;5.75;;;;;;;;;;5009200;28;20041;-79
2024/01/24 03:59:22;;;;;;;27.73;4.88;;;;;;;;;;4997693;28;20026;-76
2024/01/24 04:01:48;;;;;;;29.50;5.00;;;;;;;;;;5010857;28;20040;-77
2024/01/24 04:04:14;;;;;;;28.63;5.25;;;;;;;;;;5002973;28;21179;-75
2024/01/24 04:06:40;;;;;;;28.45;5.25;;;;;;;;;;5008273;28;20044;-80
2024/01/24 04:09:07;;;;;;;31.23;4.72;;;;;;;;;;5005841;28;20029;-81
2024/01/24 04:11:33;;;;;;;33.95;6.10;;;;;;;;;;5007265;28;20506;-77
2024/01/24 04:14:01;;;;;;;30.63;5.82;;;;;;;;;;5004383;28;20053;-80
2024/01/24 04:16:28;;;;;;;29.63;6.57;;;;;;;;;;5006148;28;20061;-81
2024/01/24 04:18:54;;;;;;;28.70;5.60;;;;;;;;;;5004177;28;20026;-78
2024/01/24 04:21:20;;;;;;;31.73;4.80;;;;;;;;;;5005326;28;20288;-80
2024/01/24 04:23:46;;;;;;;31.30;5.18;;;;;;;;;;5008879;28;20034;-79
2024/01/24 04:26:12;;;;;;;39.05;6.28;;;;;;;;;;5009755;28;20277;-78
2024/01/24 04:28:38;;;;;;;42.65;7.15;;;;;;;;;;5008011;28;20068;-80
2024/01/24 04:31:04;;;;;;;40.58;7.70;;;;;;;;;;5008361;28;20431;-79
2024/01/24 04:33:31;;;;;;;40.20;6.38;;;;;;;;;;5009711;28;20040;-79
2024/01/24 04:35:57;;;;;;;39.53;6.60;;;;;;;;;;5011277;28;20558;-79
2024/01/24 04:38:23;;;;;;;37.08;5.95;;;;;;;;;;5006379;28;20081;-78
2024/01/24 04:40:49;;;;;;;31.40;5.18;;;;;;;;;;5006975;28;20030;-81
2024/01/24 04:43:16;;;;;;;32.35;6.18;;;;;;;;;;5007964;28;20045;-78
2024/01/24 04:45:42;;;;;;;36.95;5.85;;;;;;;;;;5015840;28;20025;-80
2024/01/24 04:48:08;;;;;;;34.90;5.63;;;;;;;;;;5016681;28;20026;-80
2024/01/24 04:50:34;;;;;;;35.92;6.43;;;;;;;;;;5012418;28;20649;-78
2024/01/24 04:53:00;;;;;;;43.97;7.45;;;;;;;;;;5008778;28;20258;-78
2024/01/24 04:55:26;;;;;;;49.35;8.45;;;;;;;;;;5009847;28;20112;-78
2024/01/24 04:57:52;;;;;;;36.25;5.65;;;;;;;;;;5011401;28;20356;-80
2024/01/24 05:00:18;;;;;;;35.80;5.70;;;;;;;;;;5012960;28;20999;-80
2024/01/24 05:02:44;;;;;;;56.42;7.88;;;;;;;;;;5012797;28;20044;-78
2024/01/24 05:05:10;;;;;;;44.40;7.35;;;;;;;;;;5009855;28;20030;-79
2024/01/24 05:07:36;;;;;;;41.33;8.70;;;;;;;;;;5009300;28;20463;-79
2024/01/24 05:10:04;;;;;;;40.38;7.38;;;;;;;;;;4997643;28;20061;-80
2024/01/24 05:12:31;;;;;;;49.10;7.00;;;;;;;;;;5010974;28;20077;-81
2024/01/24 05:14:57;;;;;;;37.42;6.28;;;;;;;;;;5012270;28;20033;-79
2024/01/24 05:17:23;;;;;;;34.40;5.30;;;;;;;;;;5010532;28;20052;-81
2024/01/24 05:19:49;;;;;;;40.40;6.07;;;;;;;;;;5019202;28;20029;-79
2024/01/24 05:22:16;;;;;;;49.47;7.57;;;;;;;;;;5011164;28;20041;-78
2024/01/24 05:24:45;;;;;;;53.30;8.40;;;;;;;;;;5003053;28;20028;-81
2024/01/24 05:27:12;;;;;;;47.30;7.05;;;;;;;;;;5010031;28;20132;-77
2024/01/24 05:29:39;;;;;;;57.10;9.80;;;;;;;;;;5010667;28;20034;-79
2024/01/24 05:32:05;;;;;;;42.45;8.35;;;;;;;;;;5028092;28;20390;-78
2024/01/24 05:34:31;;;;;;;42.80;7.40;;;;;;;;;;5013908;28;20113;-80
2024/01/24 05:36:57;;;;;;;39.63;6.63;;;;;;;;;;5011052;28;20044;-78
2024/01/24 05:39:23;;;;;;;51.30;9.20;;;;;;;;;;5008980;28;20045;-79
2024/01/24 05:41:49;;;;;;;51.88;9.25;;;;;;;;;;5011451;28;20038;-79
2024/01/24 05:44:15;;;;;;;58.97;9.63;;;;;;;;;;5010561;28;20507;-78
2024/01/24 05:46:41;;;;;;;44.33;8.43;;;;;;;;;;5009893;28;20026;-79
2024/01/24 05:49:07;;;;;;;49.58;8.77;;;;;;;;;;4999103;28;20030;-77
2024/01/24 05:51:34;;;;;;;45.80;8.27;;;;;;;;;;5010376;28;20025;-77
2024/01/24 05:54:00;;;;;;;43.30;8.73;;;;;;;;;;5010322;28;20053;-82
2024/01/24 05:56:26;;;;;;;56.65;10.25;;;;;;;;;;5010647;28;20034;-78
2024/01/24 05:58:52;;;;;;;56.63;10.18;;;;;;;;;;5003860;28;20038;-79
2024/01/24 06:01:18;;;;;;;59.58;11.63;;;;;;;;;;5013645;28;20030;-78
2024/01/24 06:03:44;;;;;;;45.60;7.90;;;;;;;;;;5010234;28;20059;-79
2024/01/24 06:06:10;;;;;;;50.35;8.30;;;;;;;;;;5007347;28;20388;-79
2024/01/24 06:08:37;;;;;;;47.83;8.52;;;;;;;;;;5006915;28;20391;-79
2024/01/24 06:11:03;;;;;;;51.20;9.18;;;;;;;;;;5007099;28;20089;-79
2024/01/24 06:13:29;;;;;;;46.88;8.55;;;;;;;;;;5011465;28;20061;-77
2024/01/24 06:15:55;;;;;;;46.70;9.18;;;;;;;;;;5010163;28;20045;-79
2024/01/24 06:18:21;;;;;;;53.67;10.57;;;;;;;;;;5009514;28;20034;-77
2024/01/24 06:20:47;;;;;;;43.30;7.68;;;;;;;;;;5008426;28;20383;-78
2024/01/24 06:23:15;;;;;;;53.60;8.75;;;;;;;;;;5000831;28;20057;-77
2024/01/24 06:25:41;;;;;;;46.42;8.75;;;;;;;;;;5002302;28;20149;-79
2024/01/24 06:28:07;;;;;;;46.50;8.25;;;;;;;;;;5010447;28;20087;-78
2024/01/24 06:30:33;;;;;;;50.72;8.60;;;;;;;;;;5013669;28;20386;-78
2024/01/24 06:32:59;;;;;;;61.70;9.95;;;;;;;;;;5009016;28;20030;-80
2024/01/24 06:35:25;;;;;;;53.97;11.45;;;;;;;;;;5000581;28;20038;-82
2024/01/24 06:37:54;;;;;;;43.85;8.85;;;;;;;;;;5009165;28;20045;-78
2024/01/24 06:40:20;;;;;;;44.67;8.15;;;;;;;;;;5008613;28;20029;-82
2024/01/24 06:42:46;;;;;;;41.40;7.97;;;;;;;;;;5010006;28;20407;-77
2024/01/24 06:45:12;;;;;;;39.42;7.93;;;;;;;;;;5010647;28;20026;-79
2024/01/24 06:47:38;;;;;;;52.28;8.07;;;;;;;;;;4997705;28;20556;-78
2024/01/24 06:50:08;;;;;;;44.63;9.65;;;;;;;;;;5005832;28;20499;-79
2024/01/24 06:52:34;;;;;;;50.22;9.05;;;;;;;;;;5008483;28;20029;-78
2024/01/24 06:55:01;;;;;;;44.20;7.65;;;;;;;;;;5007735;28;20045;-79
2024/01/24 06:57:27;;;;;;;41.60;7.05;;;;;;;;;;5009559;28;20034;-78
2024/01/24 06:59:53;;;;;;;47.83;8.77;;;;;;;;;;5010348;28;20036;-78
2024/01/24 07:02:19;;;;;;;51.85;7.93;;;;;;;;;;5012468;28;20391;-78
2024/01/24 07:04:45;;;;;;;48.72;8.38;;;;;;;;;;5009831;28;20032;-78
2024/01/24 07:07:11;;;;;;;50.42;10.05;;;;;;;;;;5002297;28;20109;-77
2024/01/24 07:09:37;;;;;;;42.47;9.35;;;;;;;;;;5008370;28;20065;-79
2024/01/24 07:12:04;;;;;;;56.92;8.68;;;;;;;;;;5008774;28;20060;-78
2024/01/24 07:14:30;;;;;;;48.20;7.88;;;;;;;;;;5010067;28;20041;-78
2024/01/24 07:16:56;;;;;;;53.35;9.82;;;;;;;;;;5008904;28;20038;-79
2024/01/24 07:19:22;;;;;;;44.50;7.88;;;;;;;;;;5008240;28;20030;-78
2024/01/24 07:21:48;;;;;;;58.05;11.15;;;;;;;;;;5007099;28;20308;-78
2024/01/24 07:24:14;;;;;;;53.97;8.98;;;;;;;;;;5008293;28;20490;-77
2024/01/24 07:26:40;;;;;;;56.35;9.65;;;;;;;;;;5008807;28;20096;-79
2024/01/24 07:29:06;;;;;;;48.00;9.55;;;;;;;;;;5008472;28;20475;-81
2024/01/24 07:31:32;;;;;;;50.63;8.15;;;;;;;;;;5004643;28;20026;-78
2024/01/24 07:33:58;;;;;;;38.10;6.60;;;;;;;;;;5007905;28;20034;-79
2024/01/24 07:36:25;;;;;;;46.95;9.52;;;;;;;;;;5009654;28;20028;-77
2024/01/24 07:38:51;;;;;;;44.17;7.15;;;;;;;;;;4999582;28;20172;-78
2024/01/24 07:41:17;;;;;;;48.55;9.82;;;;;;;;;;5007775;28;20459;-78
2024/01/24 07:43:43;;;;;;;56.13;10.07;;;;;;;;;;5006401;28;20092;-78
2024/01/24 07:46:09;;;;;;;46.28;9.65;;;;;;;;;;5009059;28;20041;-80
2024/01/24 07:48:35;;;;;;;45.85;7.28;;;;;;;;;;5006488;28;20044;-77
2024/01/24 07:51:02;;;;;;;49.20;9.55;;;;;;;;;;5008972;28;20030;-77
2024/01/24 07:53:28;;;;;;;51.72;9.95;;;;;;;;;;5005862;28;20045;-77
2024/01/24 07:55:56;;;;;;;56.22;8.00;;;;;;;;;;5002159;28;20048;-78
2024/01/24 07:58:22;;;;;;;36.47;7.68;;;;;;;;;;5004990;28;20164;-78
2024/01/24 08:00:48;;;;;;;52.33;9.88;;;;;;;;;;5005470;28;20034;-80
2024/01/24 08:03:16;;;;;;;55.03;11.18;;;;;;;;;;5005640;28;20026;-80
2024/01/24 08:05:43;;;;;;;45.72;7.78;;;;;;;;;;5014825;28;20033;-81
2024/01/24 08:08:09;;;;;;;48.53;8.43;;;;;;;;;;5008153;28;20041;-79
2024/01/24 08:10:35;;;;;;;45.15;7.80;;;;;;;;;;5008177;28;20494;-81
2024/01/24 08:13:01;;;;;;;49.10;9.35;;;;;;;;;;5008989;28;20132;-79
2024/01/24 08:15:27;;;;;;;50.50;10.15;;;;;;;;;;5011413;28;20026;-77
2024/01/24 08:17:53;;;;;;;64.80;10.10;;;;;;;;;;5009940;28;20045;-82
2024/01/24 08:20:21;;;;;;;51.03;10.23;;;;;;;;;;5008799;28;20100;-81
2024/01/24 08:22:48;;;;;;;49.47;8.65;;;;;;;;;;5001321;28;20032;-84
2024/01/24 08:25:14;;;;;;;40.40;7.00;;;;;;;;;;4998785;28;20405;-78
2024/01/24 08:27:40;;;;;;;47.72;8.85;;;;;;;;;;5008126;28;20115;-82
2024/01/24 08:30:06;;;;;;;47.30;8.35;;;;;;;;;;5005921;28;20018;-78
2024/01/24 08:32:33;;;;;;;53.00;9.15;;;;;;;;;;5003964;28;20041;-79
2024/01/24 08:34:59;;;;;;;42.22;7.50;;;;;;;;;;5008026;28;20026;-81
2024/01/24 08:37:25;;;;;;;52.90;9.82;;;;;;;;;;5007482;28;20038;-80
2024/01/24 08:39:51;;;;;;;40.70;7.93;;;;;;;;;;5009312;28;20050;-79
2024/01/24 08:42:17;;;;;;;61.60;10.20;;;;;;;;;;5007170;28;20030;-80
2024/01/24 08:44:43;;;;;;;43.83;8.27;;;;;;;;;;5005145;28;20034;-78
2024/01/24 08:47:09;;;;;;;46.97;8.30;;;;;;;;;;5008587;28;20038;-82
2024/01/24 08:49:35;;;;;;;51.75;9.15;;;;;;;;;;4990862;28;20050;-81
2024/01/24 08:52:02;;;;;;;58.63;10.43;;;;;;;;;;5002174;28;20042;-80
2024/01/24 08:54:28;;;;;;;46.80;9.45;;;;;;;;;;5008691;28;20037;-81
2024/01/24 08:56:54;;;;;;;43.78;7.53;;;;;;;;;;5007326;28;20038;-82
2024/01/24 08:59:20;;;;;;;57.90;10.23;;;;;;;;;;5008235;28;20026;-81
2024/01/24 09:01:46;;;;;;;47.50;9.75;;;;;;;;;;5005978;28;20032;-85
2024/01/24 09:04:12;;;;;;;53.42;8.25;;;;;;;;;;5001049;28;20522;-83
2024/01/24 09:06:38;;;;;;;48.88;7.55;;;;;;;;;;5005862;28;20124;-83
2024/01/24 09:09:06;;;;;;;62.58;10.52;;;;;;;;;;5004384;28;20054;-81
2024/01/24 09:11:32;;;;;;;44.33;8.35;;;;;;;;;;5007736;28;20128;-81
2024/01/24 09:13:58;;;;;;;55.50;9.95;;;;;;;;;;5006058;28;20076;-83
2024/01/24 09:16:24;;;;;;;49.17;9.13;;;;;;;;;;5003980;28;20041;-82
2024/01/24 09:18:50;;;;;;;48.70;8.35;;;;;;;;;;5009677;28;20238;-82
2024/01/24 09:21:16;;;;;;;50.75;7.70;;;;;;;;;;5010510;28;20034;-81
2024/01/24 09:23:42;;;;;;;48.40;10.52;;;;;;;;;;5009626;28;20038;-78
2024/01/24 09:26:08;;;;;;;44.05;8.82;;;;;;;;;;5010591;28;20033;-79
2024/01/24 09:28:34;;;;;;;47.00;8.43;;;;;;;;;;5010341;28;20110;-79
2024/01/24 09:31:00;;;;;;;43.60;7.72;;;;;;;;;;5018934;28;20060;-80
2024/01/24 09:33:26;;;;;;;47.65;9.02;;;;;;;;;;5002368;28;20030;-80
2024/01/24 09:35:52;;;;;;;50.92;8.18;;;;;;;;;;5008907;28;20350;-80
2024/01/24 09:38:18;;;;;;;47.28;9.57;;;;;;;;;;5010030;28;20048;-81
2024/01/24 09:40:45;;;;;;;51.03;10.02;;;;;;;;;;5009407;28;20392;-82
2024/01/24 09:43:11;;;;;;;50.40;8.75;;;;;;;;;;5008606;28;20038;-82
2024/01/24 09:45:42;;;;;;;49.70;8.43;;;;;;;;;;5007847;28;20113;-83
2024/01/24 09:48:09;;;;;;;50.88;8.25;;;;;;;;;;5007666;28;20069;-80
2024/01/24 09:50:35;;;;;;;39.58;7.65;;;;;;;;;;5009152;28;20491;-80
2024/01/24 09:53:07;;;;;;;54.65;9.75;;;;;;;;;;5004247;28;20028;-79
2024/01/24 09:55:34;;;;;;;44.77;10.30;;;;;;;;;;4996574;28;20041;-80
2024/01/24 09:58:00;;;;;;;49.05;8.60;;;;;;;;;;5005903;28;20415;-79
2024/01/24 10:00:26;;;;;;;50.08;10.48;;;;;;;;;;5011623;28;20052;-80
2024/01/24 10:02:52;;;;;;;47.45;8.50;;;;;;;;;;5005300;28;20033;-80
2024/01/24 10:05:19;;;;;;;43.65;7.88;;;;;;;;;;5009002;28;20038;-82
2024/01/24 10:07:46;;;;;;;47.97;9.63;;;;;;;;;;5008476;28;20033;-83
2024/01/24 10:10:12;;;;;;;41.90;8.30;;;;;;;;;;5009029;28;20025;-81
2024/01/24 10:12:39;;;;;;;41.70;6.82;;;;;;;;;;5004262;28;20101;-80
2024/01/24 10:15:05;;;;;;;42.22;8.90;;;;;;;;;;5003495;28;20034;-82
2024/01/24 10:17:31;;;;;;;38.75;7.25;;;;;;;;;;5006312;28;20029;-81
2024/01/24 10:19:58;;;;;;;45.25;8.43;;;;;;;;;;5008038;28;20061;-80
2024/01/24 10:22:25;;;;;;;42.80;8.77;;;;;;;;;;5006168;28;20109;-78
2024/01/24 10:24:51;;;;;;;47.25;8.52;;;;;;;;;;5005788;28;20042;-82
2024/01/24 10:27:17;;;;;;;41.30;7.57;;;;;;;;;;5005565;28;20038;-83
2024/01/24 10:29:44;;;;;;;36.88;7.65;;;;;;;;;;5006340;28;20499;-79
2024/01/24 10:32:10;;;;;;;41.40;7.57;;;;;;;;;;5010531;28;20360;-79
2024/01/24 10:34:37;;;;;;;44.22;8.35;;;;;;;;;;5004440;28;20358;-81
2024/01/24 10:37:04;;;;;;;36.38;7.78;;;;;;;;;;5004485;28;20031;-81
2024/01/24 10:39:33;;;;;;;38.88;8.63;;;;;;;;;;5010010;28;20029;-82
2024/01/24 10:42:02;;;;;;;46.70;8.07;;;;;;;;;;5001834;28;20121;-82
2024/01/24 10:44:32;;;;;;;48.95;9.60;;;;;;;;;;5007333;28;20488;-85
2024/01/24 10:46:58;;;;;;;41.10;7.40;;;;;;;;;;5005941;28;20048;-83
2024/01/24 10:49:24;;;;;;;38.92;7.53;;;;;;;;;;5010377;28;20037;-83
2024/01/24 10:51:55;;;;;;;41.97;7.78;;;;;;;;;;5008284;28;20034;-83
2024/01/24 10:54:21;;;;;;;43.33;7.65;;;;;;;;;;5006078;28;20189;-84
2024/01/24 10:56:50;;;;;;;45.42;10.80;;;;;;;;;;5009276;28;20030;-83
2024/01/24 10:59:16;;;;;;;55.42;9.38;;;;;;;;;;4998573;28;20034;-81
2024/01/24 11:01:44;;;;;;;41.88;6.43;;;;;;;;;;5010356;28;20379;-84
2024/01/24 11:04:13;;;;;;;44.90;8.35;;;;;;;;;;5009674;28;20469;-81
2024/01/24 11:06:44;;;;;;;41.05;8.48;;;;;;;;;;5004628;28;20025;-83
2024/01/24 11:09:23;;;;;;;41.60;6.80;;;;;;;;;;5005597;28;20439;-83
2024/01/24 11:11:51;;;;;;;41.97;7.72;;;;;;;;;;5007157;28;20046;-82
2024/01/24 11:14:29;;;;;;;31.13;6.13;;;;;;;;;;5009839;28;20037;-81
2024/01/24 11:16:55;;;;;;;46.20;7.70;;;;;;;;;;5008394;28;20065;-83
2024/01/24 11:19:26;;;;;;;41.55;8.13;;;;;;;;;;5009169;28;20116;-82
2024/01/24 11:21:53;;;;;;;40.28;7.75;;;;;;;;;;5004893;28;20532;-82
2024/01/24 11:24:38;;;;;;;33.35;6.68;;;;;;;;;;5004088;28;20034;-82
2024/01/24 11:27:04;;;;;;;38.47;7.57;;;;;;;;;;5007959;28;20427;-83
2024/01/24 11:29:34;;;;;;;36.42;7.22;;;;;;;;;;5002964;28;20523;-83
2024/01/24 11:32:00;;;;;;;43.55;6.38;;;;;;;;;;5008181;28;20120;-83
2024/01/24 11:34:29;;;;;;;45.65;9.10;;;;;;;;;;5009174;28;20057;-83
2024/01/24 11:36:56;;;;;;;37.95;7.32;;;;;;;;;;5006583;28;20026;-82
2024/01/24 11:39:31;;;;;;;37.42;7.32;;;;;;;;;;5009474;28;20111;-84
2024/01/24 11:42:16;;;;;;;37.72;7.00;;;;;;;;;;5004334;28;20030;-84
2024/01/24 11:44:42;;;;;;;33.20;6.93;;;;;;;;;;5002158;28;20449;-84
2024/01/24 11:47:08;;;;;;;38.67;6.22;;;;;;;;;;5015000;28;20040;-88
2024/01/24 11:49:34;;;;;;;36.22;8.75;;;;;;;;;;5005769;28;20038;-80
2024/01/24 11:52:01;;;;;;;45.63;7.60;;;;;;;;;;5002274;28;20495;-81
2024/01/24 11:54:27;;;;;;;36.28;6.68;;;;;;;;;;4990281;28;20430;-85
2024/01/24 11:56:53;;;;;;;42.85;7.10;;;;;;;;;;5001908;28;20048;-80
2024/01/24 11:59:22;;;;;;;45.30;8.32;;;;;;;;;;5003658;28;20505;-79
2024/01/24 12:01:48;;;;;;;35.58;8.15;;;;;;;;;;5011974;28;20408;-80
2024/01/24 12:04:14;;;;;;;52.15;7.72;;;;;;;;;;5007928;28;20026;-80
2024/01/24 12:06:41;;;;;;;45.50;7.50;;;;;;;;;;5008052;28;20022;-79
2024/01/24 12:09:09;;;;;;;32.47;8.65;;;;;;;;;;5007045;28;20495;-81
2024/01/24 12:11:35;;;;;;;37.10;7.05;;;;;;;;;;5008125;28;20049;-78
2024/01/24 12:14:01;;;;;;;36.15;7.25;;;;;;;;;;5007737;28;20034;-79
2024/01/24 12:16:30;;;;;;;41.20;7.07;;;;;;;;;;5003247;28;20088;-80
2024/01/24 12:18:56;;;;;;;39.00;6.35;;;;;;;;;;5006694;28;20475;-78
2024/01/24 12:21:22;;;;;;;42.92;7.68;;;;;;;;;;4998911;28;20038;-80
2024/01/24 12:23:48;;;;;;;43.08;7.75;;;;;;;;;;5011806;28;20030;-80
2024/01/24 12:26:15;;;;;;;33.28;6.68;;;;;;;;;;5017182;28;20030;-80
2024/01/24 12:28:41;;;;;;;45.58;8.98;;;;;;;;;;5015113;28;20038;-83
2024/01/24 12:31:08;;;;;;;40.00;7.75;;;;;;;;;;5020077;28;20048;-83
2024/01/24 12:33:34;;;;;;;36.85;6.50;;;;;;;;;;5020392;28;20056;-82
2024/01/24 12:36:06;;;;;;;42.25;7.28;;;;;;;;;;5017304;28;20030;-81
2024/01/24 12:38:36;;;;;;;39.13;7.63;;;;;;;;;;5021645;28;20044;-82
2024/01/24 12:41:02;;;;;;;59.30;7.97;;;;;;;;;;5020636;28;20036;-82
2024/01/24 12:43:28;;;;;;;47.97;8.45;;;;;;;;;;5013998;28;20222;-83
2024/01/24 12:45:54;;;;;;;45.88;8.00;;;;;;;;;;5008782;28;20515;-83
2024/01/24 12:48:20;;;;;;;42.75;8.38;;;;;;;;;;5012356;28;20117;-83
2024/01/24 12:50:46;;;;;;;36.42;6.95;;;;;;;;;;5013716;28;20028;-83
2024/01/24 12:53:13;;;;;;;40.78;7.38;;;;;;;;;;5013530;28;20537;-82
2024/01/24 12:55:39;;;;;;;48.10;8.45;;;;;;;;;;5014438;28;20022;-83
2024/01/24 12:58:05;;;;;;;46.83;8.02;;;;;;;;;;5012129;28;20049;-83
2024/01/24 13:00:33;;;;;;;44.70;9.35;;;;;;;;;;5016150;28;20032;-82
2024/01/24 13:02:59;;;;;;;49.75;9.73;;;;;;;;;;5032636;28;20478;-82
2024/01/24 13:05:25;;;;;;;49.63;7.88;;;;;;;;;;5016660;28;20029;-83
2024/01/24 13:07:51;;;;;;;42.63;8.77;;;;;;;;;;5013512;28;20026;-83
2024/01/24 13:10:17;;;;;;;46.83;7.72;;;;;;;;;;4997629;28;20038;-82
2024/01/24 13:12:43;;;;;;;47.85;8.20;;;;;;;;;;5013492;28;20050;-83
2024/01/24 13:15:10;;;;;;;33.30;6.40;;;;;;;;;;5014691;28;20037;-82
2024/01/24 13:17:36;;;;;;;47.67;7.28;;;;;;;;;;5014743;28;20448;-83
2024/01/24 13:20:05;;;;;;;38.83;7.47;;;;;;;;;;5013079;28;20268;-82
2024/01/24 13:22:31;;;;;;;42.00;7.28;;;;;;;;;;5012402;28;20076;-83
2024/01/24 13:24:57;;;;;;;49.15;7.18;;;;;;;;;;5010049;28;20044;-83
2024/01/24 13:27:23;;;;;;;32.40;5.95;;;;;;;;;;5006357;28;20076;-83
2024/01/24 13:29:49;;;;;;;40.22;7.65;;;;;;;;;;5011597;28;20462;-81
2024/01/24 13:32:15;;;;;;;40.15;7.53;;;;;;;;;;5010955;28;20033;-81
2024/01/24 13:34:41;;;;;;;35.42;8.02;;;;;;;;;;5012121;28;20026;-82
2024/01/24 13:37:07;;;;;;;45.28;8.20;;;;;;;;;;5011550;28;20034;-83
2024/01/24 13:39:33;;;;;;;43.40;7.97;;;;;;;;;;5007704;28;20038;-82
2024/01/24 13:41:59;;;;;;;43.58;7.78;;;;;;;;;;5011730;28;20056;-83
2024/01/24 13:44:25;;;;;;;45.30;7.28;;;;;;;;;;5016722;28;20034;-82
2024/01/24 13:46:52;;;;;;;38.60;7.20;;;;;;;;;;5011656;28;20034;-82
2024/01/24 13:49:18;;;;;;;48.55;8.02;;;;;;;;;;5004562;28;20034;-82
2024/01/24 13:51:44;;;;;;;40.70;7.88;;;;;;;;;;5010624;28;20537;-82
2024/01/24 13:54:10;;;;;;;38.70;7.32;;;;;;;;;;4996778;28;20085;-82
2024/01/24 13:56:36;;;;;;;49.47;7.60;;;;;;;;;;5002338;28;20040;-82
2024/01/24 13:59:02;;;;;;;40.25;8.07;;;;;;;;;;5010338;28;20038;-81
2024/01/24 14:01:28;;;;;;;51.92;7.47;;;;;;;;;;5011400;28;20549;-82
2024/01/24 14:03:54;;;;;;;46.80;8.75;;;;;;;;;;5008581;28;20038;-82
2024/01/24 14:06:20;;;;;;;42.53;7.43;;;;;;;;;;5010199;28;20436;-82
2024/01/24 14:08:47;;;;;;;44.15;9.60;;;;;;;;;;5012351;28;20038;-82
2024/01/24 14:11:14;;;;;;;49.00;7.70;;;;;;;;;;5009592;28;20153;-81
2024/01/24 14:13:40;;;;;;;40.97;8.20;;;;;;;;;;5012835;28;20026;-82
2024/01/24 14:16:06;;;;;;;43.67;7.32;;;;;;;;;;5014760;28;20490;-82
2024/01/24 14:18:33;;;;;;;42.38;8.07;;;;;;;;;;5011639;28;20032;-82
2024/01/24 14:20:59;;;;;;;51.67;9.60;;;;;;;;;;5012150;28;20069;-81
2024/01/24 14:23:25;;;;;;;39.97;6.82;;;;;;;;;;5010839;28;20022;-83